Anzahl Datensätze: 286
min. Temperatur: -1.8 °C
max. Temperatur: 3.0 °C
max. Windgeschwindigkeit: 52.6 km/h
Niederschlagsumme: 0.4 mm
| Datum |
Zeit |
Temp °C |
Feuchte % |
Taupunkt °C |
Luftdruck hPa |
Wind km/h |
Windrichtung |
Strahlung w/m² |
Niederschlag mm |
|---|---|---|---|---|---|---|---|---|---|
| 22.11.2024 | 00:04 | 0.4 | 84 | -2.0 | 996.0 | 0.0 | NNW | 0 | 0.0 |
| 22.11.2024 | 00:09 | 0.4 | 84 | -2.0 | 996.2 | 0.0 | NNW | 0 | 0.0 |
| 22.11.2024 | 00:14 | 0.3 | 84 | -2.1 | 996.3 | 0.0 | NNW | 0 | 0.0 |
| 22.11.2024 | 00:19 | 0.3 | 84 | -2.1 | 996.5 | 0.0 | NNW | 0 | 0.0 |
| 22.11.2024 | 00:24 | 0.2 | 84 | -2.2 | 996.7 | 0.0 | NNW | 0 | 0.0 |
| 22.11.2024 | 00:29 | 0.0 | 85 | -2.2 | 996.9 | 4.3 | NNW | 0 | 0.0 |
| 22.11.2024 | 00:34 | -0.1 | 85 | -2.3 | 997.0 | 4.3 | NNW | 0 | 0.0 |
| 22.11.2024 | 00:39 | -0.2 | 86 | -2.3 | 997.1 | 0.0 | NNW | 0 | 0.0 |
| 22.11.2024 | 00:44 | -0.2 | 86 | -2.3 | 997.2 | 1.8 | NNW | 0 | 0.0 |
| 22.11.2024 | 00:49 | -0.3 | 86 | -2.4 | 997.3 | 1.8 | NNW | 0 | 0.0 |
| 22.11.2024 | 00:55 | -0.4 | 86 | -2.5 | 997.5 | 1.8 | NNW | 0 | 0.0 |
| 22.11.2024 | 01:00 | -0.4 | 86 | -2.5 | 997.6 | 6.1 | NNW | 0 | 0.0 |
| 22.11.2024 | 01:05 | -0.6 | 87 | -2.5 | 997.7 | 4.3 | WSW | 0 | 0.0 |
| 22.11.2024 | 01:10 | -0.6 | 87 | -2.5 | 997.8 | 4.3 | WSW | 0 | 0.0 |
| 22.11.2024 | 01:15 | -0.7 | 87 | -2.6 | 998.0 | 4.3 | WSW | 0 | 0.0 |
| 22.11.2024 | 01:20 | -0.8 | 87 | -2.7 | 998.1 | 1.8 | WSW | 0 | 0.0 |
| 22.11.2024 | 01:25 | -0.8 | 87 | -2.7 | 998.2 | 1.8 | WSW | 0 | 0.0 |
| 22.11.2024 | 01:30 | -0.8 | 87 | -2.7 | 998.3 | 4.3 | WSW | 0 | 0.0 |
| 22.11.2024 | 01:35 | -0.9 | 87 | -2.8 | 998.4 | 4.3 | WSW | 0 | 0.0 |
| 22.11.2024 | 01:40 | -0.9 | 87 | -2.8 | 998.6 | 1.8 | WSW | 0 | 0.0 |
| 22.11.2024 | 01:45 | -1.0 | 87 | -2.9 | 998.7 | 1.8 | WSW | 0 | 0.0 |
| 22.11.2024 | 01:50 | -1.1 | 87 | -3.0 | 998.8 | 1.8 | WSW | 0 | 0.0 |
| 22.11.2024 | 01:55 | -1.1 | 87 | -3.0 | 998.9 | 4.3 | WSW | 0 | 0.0 |
| 22.11.2024 | 02:00 | -1.1 | 88 | -2.8 | 999.0 | 6.1 | SW | 0 | 0.0 |
| 22.11.2024 | 02:05 | -1.1 | 88 | -2.8 | 999.1 | 4.3 | SW | 0 | 0.0 |
| 22.11.2024 | 02:10 | -1.2 | 88 | -2.9 | 999.3 | 4.3 | SW | 0 | 0.0 |
| 22.11.2024 | 02:15 | -1.3 | 88 | -3.0 | 999.4 | 1.8 | WSW | 0 | 0.0 |
| 22.11.2024 | 02:20 | -1.3 | 88 | -3.0 | 999.6 | 6.1 | W | 0 | 0.0 |
| 22.11.2024 | 02:25 | -1.4 | 88 | -3.1 | 999.8 | 6.1 | W | 0 | 0.0 |
| 22.11.2024 | 02:30 | -1.4 | 88 | -3.1 | 1000.0 | 8.3 | WNW | 0 | 0.0 |
| 22.11.2024 | 02:35 | -1.5 | 88 | -3.2 | 1000.1 | 6.1 | WNW | 0 | 0.0 |
| 22.11.2024 | 02:40 | -1.5 | 88 | -3.2 | 1000.3 | 4.3 | WNW | 0 | 0.0 |
| 22.11.2024 | 02:45 | -1.6 | 88 | -3.3 | 1000.4 | 6.1 | W | 0 | 0.0 |
| 22.11.2024 | 02:50 | -1.6 | 88 | -3.3 | 1000.7 | 1.8 | WSW | 0 | 0.0 |
| 22.11.2024 | 02:55 | -1.7 | 88 | -3.4 | 1000.8 | 4.3 | WSW | 0 | 0.0 |
| 22.11.2024 | 03:00 | -1.7 | 88 | -3.4 | 1001.0 | 1.8 | SW | 0 | 0.0 |
| 22.11.2024 | 03:05 | -1.7 | 88 | -3.4 | 1001.1 | 1.8 | WSW | 0 | 0.0 |
| 22.11.2024 | 03:10 | -1.7 | 88 | -3.4 | 1001.2 | 4.3 | WSW | 0 | 0.0 |
| 22.11.2024 | 03:15 | -1.8 | 88 | -3.5 | 1001.3 | 1.8 | WSW | 0 | 0.0 |
| 22.11.2024 | 03:20 | -1.7 | 88 | -3.4 | 1001.4 | 4.3 | WSW | 0 | 0.0 |
| 22.11.2024 | 03:25 | -1.7 | 88 | -3.4 | 1001.6 | 6.1 | WSW | 0 | 0.0 |
| 22.11.2024 | 03:30 | -1.7 | 88 | -3.4 | 1001.7 | 8.3 | SW | 0 | 0.0 |
| 22.11.2024 | 03:35 | -1.6 | 87 | -3.5 | 1001.8 | 4.3 | SW | 0 | 0.0 |
| 22.11.2024 | 03:40 | -1.6 | 87 | -3.5 | 1001.9 | 6.1 | SW | 0 | 0.0 |
| 22.11.2024 | 03:45 | -1.6 | 86 | -3.6 | 1002.0 | 6.1 | WSW | 0 | 0.0 |
| 22.11.2024 | 03:50 | -1.4 | 86 | -3.4 | 1002.2 | 18.7 | WSW | 0 | 0.0 |
| 22.11.2024 | 03:56 | -1.3 | 86 | -3.3 | 1002.4 | 8.3 | SW | 0 | 0.0 |
| 22.11.2024 | 04:01 | -1.3 | 86 | -3.3 | 1002.5 | 8.3 | SW | 0 | 0.0 |
| 22.11.2024 | 04:06 | -1.3 | 86 | -3.3 | 1002.6 | 10.4 | SW | 0 | 0.0 |
| 22.11.2024 | 04:11 | -1.3 | 86 | -3.3 | 1002.7 | 6.1 | W | 0 | 0.0 |
| 22.11.2024 | 04:16 | -1.3 | 86 | -3.3 | 1002.9 | 6.1 | WSW | 0 | 0.0 |
| 22.11.2024 | 04:21 | -1.3 | 86 | -3.3 | 1003.0 | 4.3 | WSW | 0 | 0.0 |
| 22.11.2024 | 04:26 | -1.3 | 86 | -3.3 | 1003.2 | 14.4 | WSW | 0 | 0.0 |
| 22.11.2024 | 04:31 | -1.3 | 86 | -3.3 | 1003.3 | 10.4 | WSW | 0 | 0.0 |
| 22.11.2024 | 04:36 | -1.3 | 86 | -3.3 | 1003.3 | 6.1 | W | 0 | 0.0 |
| 22.11.2024 | 04:41 | -1.3 | 86 | -3.3 | 1003.4 | 8.3 | SW | 0 | 0.0 |
| 22.11.2024 | 04:46 | -1.3 | 86 | -3.3 | 1003.6 | 6.1 | WSW | 0 | 0.0 |
| 22.11.2024 | 04:51 | -1.3 | 87 | -3.2 | 1003.7 | 6.1 | WSW | 0 | 0.0 |
| 22.11.2024 | 04:56 | -1.3 | 87 | -3.2 | 1003.7 | 14.4 | SW | 0 | 0.0 |
| 22.11.2024 | 05:01 | -1.3 | 87 | -3.2 | 1003.8 | 21.2 | SW | 0 | 0.0 |
| 22.11.2024 | 05:06 | -1.4 | 87 | -3.3 | 1003.8 | 16.9 | SW | 0 | 0.0 |
| 22.11.2024 | 05:11 | -1.4 | 87 | -3.3 | 1003.8 | 12.6 | SW | 0 | 0.0 |
| 22.11.2024 | 05:16 | -1.4 | 88 | -3.1 | 1004.0 | 10.4 | SSW | 0 | 0.0 |
| 22.11.2024 | 05:21 | -1.4 | 88 | -3.1 | 1004.1 | 10.4 | WSW | 0 | 0.0 |
| 22.11.2024 | 05:26 | -1.4 | 88 | -3.1 | 1004.2 | 8.3 | WSW | 0 | 0.0 |
| 22.11.2024 | 05:31 | -1.4 | 88 | -3.1 | 1004.3 | 16.9 | SSW | 0 | 0.0 |
| 22.11.2024 | 05:36 | -1.4 | 88 | -3.1 | 1004.4 | 8.3 | SW | 0 | 0.0 |
| 22.11.2024 | 05:41 | -1.4 | 88 | -3.1 | 1004.5 | 12.6 | WSW | 0 | 0.0 |
| 22.11.2024 | 05:46 | -1.4 | 88 | -3.1 | 1004.4 | 10.4 | SSW | 0 | 0.0 |
| 22.11.2024 | 05:51 | -1.5 | 88 | -3.2 | 1004.4 | 10.4 | S | 0 | 0.0 |
| 22.11.2024 | 05:56 | -1.5 | 88 | -3.2 | 1004.5 | 10.4 | SSW | 0 | 0.0 |
| 22.11.2024 | 06:01 | -1.5 | 88 | -3.2 | 1004.7 | 8.3 | SW | 0 | 0.0 |
| 22.11.2024 | 06:06 | -1.6 | 88 | -3.3 | 1004.8 | 12.6 | SSW | 0 | 0.0 |
| 22.11.2024 | 06:11 | -1.6 | 88 | -3.3 | 1004.8 | 18.7 | SSW | 0 | 0.0 |
| 22.11.2024 | 06:16 | -1.5 | 88 | -3.2 | 1004.9 | 12.6 | SW | 0 | 0.0 |
| 22.11.2024 | 06:21 | -1.6 | 88 | -3.3 | 1004.9 | 6.1 | S | 0 | 0.0 |
| 22.11.2024 | 06:26 | -1.5 | 88 | -3.2 | 1005.0 | 18.7 | SSW | 0 | 0.0 |
| 22.11.2024 | 06:31 | -1.4 | 88 | -3.1 | 1005.0 | 18.7 | SSW | 0 | 0.0 |
| 22.11.2024 | 06:36 | -1.4 | 88 | -3.1 | 1005.0 | 10.4 | SSW | 0 | 0.0 |
| 22.11.2024 | 06:41 | -1.3 | 88 | -3.0 | 1005.0 | 16.9 | SSW | 0 | 0.0 |
| 22.11.2024 | 06:47 | -1.3 | 88 | -3.0 | 1005.2 | 21.2 | SSW | 0 | 0.0 |
| 22.11.2024 | 06:52 | -1.2 | 88 | -2.9 | 1005.4 | 18.7 | WSW | 0 | 0.0 |
| 22.11.2024 | 06:57 | -1.1 | 88 | -2.8 | 1005.6 | 12.6 | SW | 0 | 0.0 |
| 22.11.2024 | 07:02 | -1.1 | 87 | -3.0 | 1005.5 | 8.3 | SSW | 0 | 0.0 |
| 22.11.2024 | 07:07 | -1.0 | 87 | -2.9 | 1005.6 | 14.4 | SSW | 0 | 0.0 |
| 22.11.2024 | 07:12 | -0.9 | 87 | -2.8 | 1005.7 | 21.2 | WSW | 0 | 0.0 |
| 22.11.2024 | 07:17 | -0.8 | 86 | -2.8 | 1005.9 | 16.9 | S | 0 | 0.0 |
| 22.11.2024 | 07:22 | -0.8 | 87 | -2.7 | 1006.1 | 16.9 | SW | 0 | 0.0 |
| 22.11.2024 | 07:27 | -0.8 | 86 | -2.8 | 1006.3 | 10.4 | S | 0 | 0.0 |
| 22.11.2024 | 07:32 | -0.8 | 86 | -2.8 | 1006.3 | 14.4 | SSW | 0 | 0.0 |
| 22.11.2024 | 07:37 | -0.7 | 86 | -2.7 | 1006.4 | 6.1 | SSW | 0 | 0.0 |
| 22.11.2024 | 07:42 | -0.7 | 86 | -2.7 | 1006.5 | 6.1 | SW | 5 | 0.0 |
| 22.11.2024 | 07:47 | -0.6 | 86 | -2.7 | 1006.4 | 12.6 | S | 7 | 0.0 |
| 22.11.2024 | 07:52 | -0.5 | 86 | -2.6 | 1006.5 | 8.3 | SSW | 9 | 0.0 |
| 22.11.2024 | 07:57 | -0.5 | 86 | -2.6 | 1006.6 | 6.1 | SW | 14 | 0.0 |
| 22.11.2024 | 08:02 | -0.5 | 86 | -2.6 | 1006.7 | 12.6 | SW | 14 | 0.0 |
| 22.11.2024 | 08:07 | -0.6 | 87 | -2.5 | 1006.7 | 10.4 | SSW | 14 | 0.0 |
| 22.11.2024 | 08:12 | -0.6 | 87 | -2.5 | 1006.6 | 6.1 | S | 16 | 0.0 |
| 22.11.2024 | 08:17 | -0.6 | 87 | -2.5 | 1006.7 | 10.4 | S | 28 | 0.0 |
| 22.11.2024 | 08:22 | -0.7 | 87 | -2.6 | 1006.7 | 6.1 | SSW | 39 | 0.0 |
| 22.11.2024 | 08:27 | -0.7 | 88 | -2.4 | 1006.8 | 10.4 | S | 44 | 0.0 |
| 22.11.2024 | 08:32 | -0.7 | 88 | -2.4 | 1006.9 | 6.1 | SSW | 42 | 0.0 |
| 22.11.2024 | 08:37 | -0.6 | 88 | -2.3 | 1006.8 | 10.4 | SSW | 47 | 0.0 |
| 22.11.2024 | 08:42 | -0.6 | 88 | -2.3 | 1006.8 | 25.2 | WSW | 60 | 0.0 |
| 22.11.2024 | 08:47 | -0.4 | 88 | -2.1 | 1006.9 | 12.6 | SSW | 62 | 0.0 |
| 22.11.2024 | 08:52 | -0.4 | 87 | -2.3 | 1006.8 | 25.2 | SSW | 46 | 0.0 |
| 22.11.2024 | 08:57 | -0.3 | 87 | -2.2 | 1006.8 | 21.2 | SSW | 40 | 0.0 |
| 22.11.2024 | 09:02 | -0.2 | 86 | -2.3 | 1007.0 | 12.6 | WSW | 37 | 0.0 |
| 22.11.2024 | 09:07 | -0.2 | 86 | -2.3 | 1007.0 | 23.0 | SW | 23 | 0.0 |
| 22.11.2024 | 09:12 | -0.1 | 86 | -2.2 | 1007.0 | 25.2 | SSW | 21 | 0.0 |
| 22.11.2024 | 09:17 | -0.1 | 86 | -2.2 | 1006.9 | 12.6 | SW | 47 | 0.0 |
| 22.11.2024 | 09:22 | 0.0 | 86 | -2.1 | 1006.9 | 12.6 | SSW | 81 | 0.0 |
| 22.11.2024 | 09:27 | 0.1 | 86 | -2.0 | 1007.1 | 29.5 | SSW | 67 | 0.0 |
| 22.11.2024 | 09:32 | 0.2 | 86 | -1.9 | 1007.2 | 14.4 | SSW | 105 | 0.0 |
| 22.11.2024 | 09:37 | 0.3 | 86 | -1.8 | 1007.2 | 10.4 | WSW | 83 | 0.0 |
| 22.11.2024 | 09:43 | 0.4 | 86 | -1.7 | 1007.3 | 10.4 | SW | 69 | 0.0 |
| 22.11.2024 | 09:48 | 0.4 | 87 | -1.5 | 1007.5 | 18.7 | S | 67 | 0.0 |
| 22.11.2024 | 09:53 | 0.5 | 87 | -1.4 | 1007.7 | 16.9 | SSW | 107 | 0.0 |
| 22.11.2024 | 09:58 | 0.6 | 87 | -1.3 | 1007.8 | 6.1 | SW | 120 | 0.0 |
| 22.11.2024 | 10:03 | 0.6 | 86 | -1.5 | 1007.8 | 14.4 | SW | 58 | 0.0 |
| 22.11.2024 | 10:08 | 0.6 | 87 | -1.3 | 1007.9 | 21.2 | S | 60 | 0.0 |
| 22.11.2024 | 10:13 | 0.6 | 87 | -1.3 | 1008.0 | 14.4 | SW | 44 | 0.0 |
| 22.11.2024 | 10:18 | 0.6 | 87 | -1.3 | 1008.0 | 4.3 | SSW | 33 | 0.0 |
| 22.11.2024 | 10:23 | 0.6 | 87 | -1.3 | 1008.1 | 12.6 | SSW | 12 | 0.0 |
| 22.11.2024 | 10:28 | 0.6 | 88 | -1.2 | 1008.2 | 14.4 | SW | 39 | 0.0 |
| 22.11.2024 | 10:33 | 0.5 | 87 | -1.4 | 1008.4 | 27.0 | SSW | 79 | 0.0 |
| 22.11.2024 | 10:38 | 0.5 | 88 | -1.3 | 1008.5 | 31.3 | SW | 47 | 0.0 |
| 22.11.2024 | 10:43 | 0.4 | 88 | -1.4 | 1008.4 | 16.9 | SW | 97 | 0.0 |
| 22.11.2024 | 10:48 | 0.5 | 88 | -1.3 | 1008.4 | 10.4 | SSW | 93 | 0.0 |
| 22.11.2024 | 10:53 | 0.6 | 88 | -1.2 | 1008.4 | 23.0 | S | 128 | 0.0 |
| 22.11.2024 | 10:58 | 0.6 | 88 | -1.2 | 1008.4 | 27.0 | S | 151 | 0.0 |
| 22.11.2024 | 11:03 | 0.7 | 87 | -1.2 | 1008.5 | 21.2 | SW | 116 | 0.0 |
| 22.11.2024 | 11:08 | 0.7 | 87 | -1.2 | 1008.5 | 18.7 | SSW | 105 | 0.0 |
| 22.11.2024 | 11:13 | 0.8 | 87 | -1.1 | 1008.6 | 14.4 | SW | 100 | 0.0 |
| 22.11.2024 | 11:18 | 0.8 | 87 | -1.1 | 1008.7 | 8.3 | S | 114 | 0.0 |
| 22.11.2024 | 11:23 | 0.8 | 88 | -1.0 | 1008.8 | 10.4 | SSW | 98 | 0.0 |
| 22.11.2024 | 11:28 | 0.8 | 87 | -1.1 | 1008.9 | 33.8 | SSW | 35 | 0.0 |
| 22.11.2024 | 11:33 | 0.7 | 87 | -1.2 | 1008.8 | 16.9 | SW | 98 | 0.0 |
| 22.11.2024 | 11:38 | 0.8 | 88 | -1.0 | 1008.9 | 27.0 | SW | 192 | 0.0 |
| 22.11.2024 | 11:43 | 0.9 | 87 | -1.0 | 1008.8 | 16.9 | WSW | 199 | 0.0 |
| 22.11.2024 | 11:48 | 1.0 | 87 | -0.9 | 1008.7 | 29.5 | SSW | 84 | 0.0 |
| 22.11.2024 | 11:53 | 1.1 | 86 | -1.0 | 1008.9 | 16.9 | SW | 125 | 0.0 |
| 22.11.2024 | 11:58 | 1.1 | 86 | -1.0 | 1009.0 | 12.6 | W | 120 | 0.0 |
| 22.11.2024 | 12:03 | 1.1 | 86 | -1.0 | 1008.9 | 21.2 | WSW | 156 | 0.0 |
| 22.11.2024 | 12:08 | 1.2 | 85 | -1.0 | 1009.0 | 33.8 | SW | 107 | 0.0 |
| 22.11.2024 | 12:14 | 1.1 | 85 | -1.1 | 1009.1 | 37.4 | WSW | 93 | 0.0 |
| 22.11.2024 | 12:19 | 1.2 | 85 | -1.0 | 1009.0 | 21.2 | SW | 91 | 0.0 |
| 22.11.2024 | 12:24 | 1.2 | 85 | -1.0 | 1008.9 | 21.2 | SW | 137 | 0.0 |
| 22.11.2024 | 12:29 | 1.2 | 85 | -1.0 | 1009.0 | 25.2 | SW | 155 | 0.0 |
| 22.11.2024 | 12:34 | 1.3 | 85 | -0.9 | 1008.9 | 31.3 | WSW | 141 | 0.0 |
| 22.11.2024 | 12:39 | 1.3 | 85 | -0.9 | 1008.9 | 21.2 | SW | 216 | 0.0 |
| 22.11.2024 | 12:44 | 1.3 | 84 | -1.1 | 1008.9 | 10.4 | SSW | 118 | 0.0 |
| 22.11.2024 | 12:49 | 1.4 | 85 | -0.8 | 1009.0 | 18.7 | SW | 118 | 0.0 |
| 22.11.2024 | 12:54 | 1.4 | 85 | -0.8 | 1009.0 | 14.4 | W | 100 | 0.0 |
| 22.11.2024 | 12:59 | 1.4 | 84 | -1.0 | 1009.1 | 16.9 | WSW | 158 | 0.0 |
| 22.11.2024 | 13:04 | 1.6 | 85 | -0.6 | 1009.1 | 21.2 | WSW | 105 | 0.0 |
| 22.11.2024 | 13:09 | 1.6 | 84 | -0.8 | 1009.0 | 21.2 | WSW | 139 | 0.0 |
| 22.11.2024 | 13:14 | 1.6 | 84 | -0.8 | 1009.0 | 21.2 | WSW | 113 | 0.0 |
| 22.11.2024 | 13:19 | 1.6 | 84 | -0.8 | 1009.0 | 29.5 | SSW | 114 | 0.0 |
| 22.11.2024 | 13:24 | 1.6 | 85 | -0.6 | 1009.1 | 16.9 | W | 90 | 0.2 |
| 22.11.2024 | 13:29 | 1.6 | 84 | -0.8 | 1009.2 | 25.2 | WSW | 90 | 0.2 |
| 22.11.2024 | 13:34 | 1.6 | 84 | -0.8 | 1009.3 | 23.0 | SW | 121 | 0.2 |
| 22.11.2024 | 13:39 | 1.7 | 84 | -0.7 | 1009.4 | 10.4 | SW | 90 | 0.2 |
| 22.11.2024 | 13:44 | 1.7 | 84 | -0.7 | 1009.4 | 16.9 | WSW | 84 | 0.2 |
| 22.11.2024 | 13:49 | 1.7 | 84 | -0.7 | 1009.3 | 21.2 | WSW | 100 | 0.2 |
| 22.11.2024 | 13:54 | 1.7 | 84 | -0.7 | 1009.3 | 21.2 | SW | 84 | 0.2 |
| 22.11.2024 | 13:59 | 1.7 | 84 | -0.7 | 1009.2 | 23.0 | SSW | 116 | 0.2 |
| 22.11.2024 | 14:04 | 1.7 | 84 | -0.7 | 1009.2 | 16.9 | WSW | 114 | 0.2 |
| 22.11.2024 | 14:09 | 1.8 | 85 | -0.5 | 1009.3 | 18.7 | W | 81 | 0.2 |
| 22.11.2024 | 14:14 | 1.8 | 85 | -0.5 | 1009.4 | 4.3 | WNW | 47 | 0.2 |
| 22.11.2024 | 14:19 | 1.8 | 85 | -0.5 | 1009.3 | 21.2 | S | 79 | 0.2 |
| 22.11.2024 | 14:24 | 1.7 | 85 | -0.6 | 1009.2 | 21.2 | S | 33 | 0.2 |
| 22.11.2024 | 14:29 | 1.7 | 85 | -0.6 | 1009.1 | 25.2 | S | 47 | 0.2 |
| 22.11.2024 | 14:34 | 1.7 | 85 | -0.6 | 1009.1 | 27.0 | SW | 63 | 0.2 |
| 22.11.2024 | 14:39 | 1.8 | 85 | -0.5 | 1009.1 | 25.2 | WSW | 70 | 0.2 |
| 22.11.2024 | 14:44 | 1.8 | 85 | -0.5 | 1009.1 | 18.7 | SSW | 74 | 0.2 |
| 22.11.2024 | 14:49 | 1.9 | 85 | -0.4 | 1009.2 | 23.0 | S | 56 | 0.2 |
| 22.11.2024 | 14:54 | 2.0 | 84 | -0.4 | 1009.2 | 14.4 | SSW | 39 | 0.2 |
| 22.11.2024 | 15:00 | 2.0 | 84 | -0.4 | 1009.4 | 25.2 | WSW | 23 | 0.2 |
| 22.11.2024 | 15:05 | 2.1 | 84 | -0.3 | 1009.5 | 14.4 | SW | 35 | 0.2 |
| 22.11.2024 | 15:10 | 2.1 | 84 | -0.3 | 1009.6 | 27.0 | W | 25 | 0.2 |
| 22.11.2024 | 15:15 | 2.1 | 84 | -0.3 | 1009.5 | 18.7 | WSW | 30 | 0.2 |
| 22.11.2024 | 15:20 | 2.1 | 85 | -0.2 | 1009.7 | 10.4 | WSW | 39 | 0.2 |
| 22.11.2024 | 15:25 | 1.8 | 87 | -0.1 | 1009.9 | 21.2 | WSW | 16 | 0.2 |
| 22.11.2024 | 15:30 | 1.6 | 88 | -0.2 | 1009.9 | 14.4 | SSW | 7 | 0.2 |
| 22.11.2024 | 15:35 | 1.4 | 89 | -0.2 | 1010.0 | 21.2 | WSW | 7 | 0.2 |
| 22.11.2024 | 15:40 | 1.4 | 90 | -0.1 | 1010.0 | 21.2 | SW | 5 | 0.2 |
| 22.11.2024 | 15:45 | 1.3 | 90 | -0.2 | 1010.1 | 18.7 | SW | 0 | 0.2 |
| 22.11.2024 | 15:50 | 1.2 | 91 | -0.1 | 1010.2 | 14.4 | SSW | 9 | 0.2 |
| 22.11.2024 | 15:55 | 1.0 | 91 | -0.3 | 1010.2 | 14.4 | SSW | 9 | 0.2 |
| 22.11.2024 | 16:00 | 0.8 | 92 | -0.4 | 1010.2 | 27.0 | SSW | 7 | 0.2 |
| 22.11.2024 | 16:05 | 0.7 | 93 | -0.3 | 1010.2 | 21.2 | SW | 7 | 0.2 |
| 22.11.2024 | 16:10 | 0.7 | 93 | -0.3 | 1010.3 | 18.7 | SSW | 5 | 0.2 |
| 22.11.2024 | 16:15 | 0.7 | 93 | -0.3 | 1010.3 | 10.4 | SSW | 0 | 0.2 |
| 22.11.2024 | 16:20 | 0.6 | 94 | -0.3 | 1010.3 | 10.4 | SSW | 5 | 0.2 |
| 22.11.2024 | 16:25 | 0.6 | 94 | -0.3 | 1010.4 | 16.9 | WSW | 0 | 0.2 |
| 22.11.2024 | 16:30 | 0.6 | 94 | -0.3 | 1010.5 | 12.6 | S | 5 | 0.2 |
| 22.11.2024 | 16:35 | 0.6 | 94 | -0.3 | 1010.5 | 27.0 | SW | 0 | 0.2 |
| 22.11.2024 | 16:40 | 0.6 | 94 | -0.3 | 1010.6 | 16.9 | WSW | 0 | 0.2 |
| 22.11.2024 | 16:45 | 0.7 | 94 | -0.2 | 1010.5 | 23.0 | SSW | 0 | 0.2 |
| 22.11.2024 | 16:50 | 0.7 | 94 | -0.2 | 1010.6 | 18.7 | SW | 0 | 0.2 |
| 22.11.2024 | 16:55 | 0.6 | 94 | -0.3 | 1010.7 | 23.0 | SSW | 0 | 0.2 |
| 22.11.2024 | 17:00 | 0.7 | 94 | -0.2 | 1010.7 | 12.6 | SSW | 0 | 0.2 |
| 22.11.2024 | 17:05 | 0.7 | 95 | 0.0 | 1010.7 | 27.0 | SW | 0 | 0.2 |
| 22.11.2024 | 17:10 | 0.8 | 95 | 0.1 | 1010.9 | 10.4 | WSW | 0 | 0.2 |
| 22.11.2024 | 17:15 | 0.8 | 94 | -0.1 | 1011.1 | 21.2 | SSW | 0 | 0.2 |
| 22.11.2024 | 17:20 | 0.8 | 94 | -0.1 | 1011.3 | 23.0 | SW | 0 | 0.2 |
| 22.11.2024 | 17:25 | 0.9 | 94 | 0.0 | 1011.4 | 16.9 | SSW | 0 | 0.2 |
| 22.11.2024 | 17:30 | 0.9 | 94 | 0.0 | 1011.6 | 8.3 | SW | 0 | 0.2 |
| 22.11.2024 | 17:35 | 0.9 | 94 | 0.0 | 1011.8 | 35.6 | SW | 0 | 0.2 |
| 22.11.2024 | 17:40 | 1.0 | 94 | 0.1 | 1011.9 | 14.4 | SSW | 0 | 0.2 |
| 22.11.2024 | 17:45 | 1.1 | 94 | 0.2 | 1012.2 | 10.4 | WSW | 0 | 0.2 |
| 22.11.2024 | 17:50 | 1.1 | 94 | 0.2 | 1012.3 | 16.9 | S | 0 | 0.2 |
| 22.11.2024 | 17:55 | 1.1 | 94 | 0.2 | 1012.5 | 18.7 | SSW | 0 | 0.2 |
| 22.11.2024 | 18:01 | 1.1 | 94 | 0.2 | 1012.4 | 23.0 | SSW | 0 | 0.2 |
| 22.11.2024 | 18:06 | 1.1 | 94 | 0.2 | 1012.5 | 21.2 | S | 0 | 0.2 |
| 22.11.2024 | 18:11 | 1.1 | 94 | 0.2 | 1012.6 | 12.6 | S | 0 | 0.2 |
| 22.11.2024 | 18:16 | 1.2 | 94 | 0.3 | 1012.7 | 16.9 | SSW | 0 | 0.2 |
| 22.11.2024 | 18:21 | 1.2 | 94 | 0.3 | 1012.7 | 21.2 | S | 0 | 0.2 |
| 22.11.2024 | 18:26 | 1.2 | 94 | 0.3 | 1012.7 | 18.7 | WSW | 0 | 0.2 |
| 22.11.2024 | 18:31 | 1.2 | 94 | 0.3 | 1012.9 | 21.2 | SSW | 0 | 0.2 |
| 22.11.2024 | 18:36 | 1.2 | 94 | 0.3 | 1012.9 | 21.2 | SW | 0 | 0.2 |
| 22.11.2024 | 18:41 | 1.1 | 94 | 0.2 | 1012.8 | 12.6 | SSW | 0 | 0.2 |
| 22.11.2024 | 18:46 | 1.2 | 94 | 0.3 | 1012.8 | 18.7 | SSW | 0 | 0.2 |
| 22.11.2024 | 18:51 | 1.1 | 94 | 0.2 | 1013.0 | 12.6 | SW | 0 | 0.2 |
| 22.11.2024 | 18:56 | 1.2 | 94 | 0.3 | 1013.1 | 12.6 | SSW | 0 | 0.2 |
| 22.11.2024 | 19:01 | 1.2 | 95 | 0.5 | 1013.3 | 10.4 | SSW | 0 | 0.2 |
| 22.11.2024 | 19:06 | 1.3 | 94 | 0.4 | 1013.6 | 4.3 | WNW | 0 | 0.2 |
| 22.11.2024 | 19:11 | 1.3 | 95 | 0.6 | 1013.6 | 16.9 | WSW | 0 | 0.2 |
| 22.11.2024 | 19:16 | 1.3 | 95 | 0.6 | 1013.7 | 25.2 | SSW | 0 | 0.2 |
| 22.11.2024 | 19:21 | 1.4 | 95 | 0.7 | 1013.7 | 21.2 | SSW | 0 | 0.2 |
| 22.11.2024 | 19:26 | 1.4 | 95 | 0.7 | 1013.9 | 10.4 | SW | 0 | 0.2 |
| 22.11.2024 | 19:31 | 1.4 | 95 | 0.7 | 1013.8 | 16.9 | W | 0 | 0.4 |
| 22.11.2024 | 19:36 | 1.4 | 94 | 0.5 | 1013.7 | 18.7 | SSW | 0 | 0.4 |
| 22.11.2024 | 19:41 | 1.5 | 94 | 0.6 | 1013.8 | 14.4 | SSW | 0 | 0.4 |
| 22.11.2024 | 19:46 | 1.6 | 94 | 0.7 | 1014.1 | 10.4 | SW | 0 | 0.4 |
| 22.11.2024 | 19:51 | 1.6 | 94 | 0.7 | 1014.1 | 8.3 | SW | 0 | 0.4 |
| 22.11.2024 | 19:56 | 1.7 | 94 | 0.8 | 1014.4 | 18.7 | WSW | 0 | 0.4 |
| 22.11.2024 | 20:01 | 1.7 | 94 | 0.8 | 1014.4 | 18.7 | S | 0 | 0.4 |
| 22.11.2024 | 20:06 | 1.8 | 94 | 0.9 | 1014.4 | 12.6 | W | 0 | 0.4 |
| 22.11.2024 | 20:11 | 1.8 | 94 | 0.9 | 1014.5 | 21.2 | SW | 0 | 0.4 |
| 22.11.2024 | 20:16 | 1.8 | 93 | 0.8 | 1014.7 | 21.2 | WSW | 0 | 0.4 |
| 22.11.2024 | 20:21 | 1.9 | 93 | 0.9 | 1014.7 | 18.7 | S | 0 | 0.4 |
| 22.11.2024 | 20:26 | 1.9 | 93 | 0.9 | 1014.6 | 8.3 | WSW | 0 | 0.4 |
| 22.11.2024 | 20:31 | 1.9 | 93 | 0.9 | 1014.8 | 21.2 | SSW | 0 | 0.4 |
| 22.11.2024 | 20:36 | 1.9 | 93 | 0.9 | 1015.0 | 18.7 | SSW | 0 | 0.4 |
| 22.11.2024 | 20:41 | 2.0 | 93 | 1.0 | 1014.9 | 8.3 | WSW | 0 | 0.4 |
| 22.11.2024 | 20:46 | 2.0 | 92 | 0.8 | 1015.1 | 23.0 | SW | 0 | 0.4 |
| 22.11.2024 | 20:51 | 2.1 | 93 | 1.1 | 1015.0 | 14.4 | W | 0 | 0.4 |
| 22.11.2024 | 20:56 | 2.1 | 92 | 0.9 | 1015.2 | 12.6 | SW | 0 | 0.4 |
| 22.11.2024 | 21:02 | 2.1 | 92 | 0.9 | 1015.3 | 18.7 | SSW | 0 | 0.4 |
| 22.11.2024 | 21:07 | 2.2 | 92 | 1.0 | 1015.4 | 14.4 | SW | 0 | 0.4 |
| 22.11.2024 | 21:12 | 2.2 | 92 | 1.0 | 1015.5 | 25.2 | SSW | 0 | 0.4 |
| 22.11.2024 | 21:17 | 2.3 | 91 | 1.0 | 1015.8 | 16.9 | SW | 0 | 0.4 |
| 22.11.2024 | 21:22 | 2.3 | 91 | 1.0 | 1016.0 | 23.0 | SSW | 0 | 0.4 |
| 22.11.2024 | 21:27 | 2.3 | 91 | 1.0 | 1016.1 | 10.4 | SSW | 0 | 0.4 |
| 22.11.2024 | 21:32 | 2.4 | 91 | 1.1 | 1016.1 | 14.4 | SSW | 0 | 0.4 |
| 22.11.2024 | 21:37 | 2.4 | 91 | 1.1 | 1016.2 | 25.2 | SSW | 0 | 0.4 |
| 22.11.2024 | 21:42 | 2.4 | 90 | 0.9 | 1016.2 | 16.9 | SW | 0 | 0.4 |
| 22.11.2024 | 21:47 | 2.5 | 90 | 1.0 | 1016.4 | 18.7 | SW | 0 | 0.4 |
| 22.11.2024 | 21:52 | 2.6 | 90 | 1.1 | 1016.6 | 27.0 | WSW | 0 | 0.4 |
| 22.11.2024 | 21:57 | 2.6 | 90 | 1.1 | 1016.6 | 33.8 | WSW | 0 | 0.4 |
| 22.11.2024 | 22:02 | 2.6 | 90 | 1.1 | 1016.7 | 14.4 | SSW | 0 | 0.4 |
| 22.11.2024 | 22:07 | 2.6 | 90 | 1.1 | 1016.7 | 29.5 | SW | 0 | 0.4 |
| 22.11.2024 | 22:12 | 2.6 | 90 | 1.1 | 1017.0 | 21.2 | SSW | 0 | 0.4 |
| 22.11.2024 | 22:17 | 2.6 | 90 | 1.1 | 1017.0 | 35.6 | SW | 0 | 0.4 |
| 22.11.2024 | 22:22 | 2.6 | 90 | 1.1 | 1017.0 | 21.2 | SSW | 0 | 0.4 |
| 22.11.2024 | 22:27 | 2.7 | 90 | 1.2 | 1017.1 | 16.9 | WSW | 0 | 0.4 |
| 22.11.2024 | 22:32 | 2.7 | 90 | 1.2 | 1017.2 | 12.6 | SW | 0 | 0.4 |
| 22.11.2024 | 22:37 | 2.7 | 90 | 1.2 | 1017.2 | 8.3 | SW | 0 | 0.4 |
| 22.11.2024 | 22:42 | 2.7 | 90 | 1.2 | 1017.3 | 8.3 | SW | 0 | 0.4 |
| 22.11.2024 | 22:47 | 2.7 | 89 | 1.1 | 1017.6 | 18.7 | SW | 0 | 0.4 |
| 22.11.2024 | 22:52 | 2.8 | 89 | 1.2 | 1017.8 | 12.6 | SW | 0 | 0.4 |
| 22.11.2024 | 22:57 | 2.8 | 89 | 1.2 | 1017.9 | 29.5 | SW | 0 | 0.4 |
| 22.11.2024 | 23:02 | 2.9 | 89 | 1.3 | 1018.0 | 14.4 | SW | 0 | 0.4 |
| 22.11.2024 | 23:07 | 2.9 | 88 | 1.1 | 1018.2 | 10.4 | SSW | 0 | 0.4 |
| 22.11.2024 | 23:12 | 2.9 | 88 | 1.1 | 1018.4 | 6.1 | WSW | 0 | 0.4 |
| 22.11.2024 | 23:17 | 2.9 | 88 | 1.1 | 1018.5 | 6.1 | SW | 0 | 0.4 |
| 22.11.2024 | 23:22 | 3.0 | 88 | 1.2 | 1018.6 | 6.1 | SW | 0 | 0.4 |
| 22.11.2024 | 23:27 | 3.0 | 88 | 1.2 | 1018.8 | 12.6 | SW | 0 | 0.4 |
| 22.11.2024 | 23:32 | 3.0 | 88 | 1.2 | 1018.8 | 27.0 | SW | 0 | 0.4 |
| 22.11.2024 | 23:37 | 3.0 | 88 | 1.2 | 1019.0 | 14.4 | SW | 0 | 0.4 |
| 22.11.2024 | 23:42 | 3.0 | 88 | 1.2 | 1019.0 | 21.2 | WSW | 0 | 0.4 |
| 22.11.2024 | 23:47 | 3.0 | 88 | 1.2 | 1019.1 | 16.9 | SW | 0 | 0.4 |
| 22.11.2024 | 23:53 | 3.0 | 88 | 1.2 | 1019.2 | 8.3 | WNW | 0 | 0.4 |
| 22.11.2024 | 23:58 | 3.0 | 88 | 1.2 | 1019.3 | 12.6 | WSW | 0 | 0.4 |